sensor_id;sensor_type;location;lat;lon;timestamp;P1;durP1;ratioP1;P2;durP2;ratioP2
28760;SDS011;15917;50.014;8.352;2023-06-24T00:01:24;6.95;;;4.10;;
28760;SDS011;15917;50.014;8.352;2023-06-24T00:03:50;8.23;;;3.90;;
28760;SDS011;15917;50.014;8.352;2023-06-24T00:06:21;9.43;;;4.10;;
28760;SDS011;15917;50.014;8.352;2023-06-24T00:08:47;7.47;;;4.40;;
28760;SDS011;15917;50.014;8.352;2023-06-24T00:11:13;8.48;;;4.35;;
28760;SDS011;15917;50.014;8.352;2023-06-24T00:13:39;6.15;;;3.88;;
28760;SDS011;15917;50.014;8.352;2023-06-24T00:16:05;8.45;;;4.30;;
28760;SDS011;15917;50.014;8.352;2023-06-24T00:18:32;11.10;;;5.32;;
28760;SDS011;15917;50.014;8.352;2023-06-24T00:20:58;7.90;;;4.23;;
28760;SDS011;15917;50.014;8.352;2023-06-24T00:23:26;10.68;;;5.25;;
28760;SDS011;15917;50.014;8.352;2023-06-24T00:25:53;9.27;;;4.97;;
28760;SDS011;15917;50.014;8.352;2023-06-24T00:28:23;9.07;;;4.70;;
28760;SDS011;15917;50.014;8.352;2023-06-24T00:30:48;6.93;;;4.63;;
28760;SDS011;15917;50.014;8.352;2023-06-24T00:33:14;6.43;;;3.90;;
28760;SDS011;15917;50.014;8.352;2023-06-24T00:35:41;7.95;;;4.32;;
28760;SDS011;15917;50.014;8.352;2023-06-24T00:38:08;6.55;;;4.53;;
28760;SDS011;15917;50.014;8.352;2023-06-24T00:40:34;5.88;;;4.07;;
28760;SDS011;15917;50.014;8.352;2023-06-24T00:43:00;7.80;;;4.60;;
28760;SDS011;15917;50.014;8.352;2023-06-24T00:45:26;7.50;;;5.03;;
28760;SDS011;15917;50.014;8.352;2023-06-24T00:47:53;8.50;;;4.78;;
28760;SDS011;15917;50.014;8.352;2023-06-24T00:50:20;7.47;;;4.78;;
28760;SDS011;15917;50.014;8.352;2023-06-24T00:52:46;10.30;;;5.47;;
28760;SDS011;15917;50.014;8.352;2023-06-24T00:55:12;9.60;;;3.92;;
28760;SDS011;15917;50.014;8.352;2023-06-24T00:57:40;7.38;;;4.93;;
28760;SDS011;15917;50.014;8.352;2023-06-24T01:00:07;6.70;;;4.10;;
28760;SDS011;15917;50.014;8.352;2023-06-24T01:02:39;10.35;;;5.05;;
28760;SDS011;15917;50.014;8.352;2023-06-24T01:05:07;8.05;;;4.20;;
28760;SDS011;15917;50.014;8.352;2023-06-24T01:07:35;8.70;;;4.43;;
28760;SDS011;15917;50.014;8.352;2023-06-24T01:10:02;8.18;;;4.07;;
28760;SDS011;15917;50.014;8.352;2023-06-24T01:12:34;6.18;;;4.10;;
28760;SDS011;15917;50.014;8.352;2023-06-24T01:15:01;7.47;;;4.65;;
28760;SDS011;15917;50.014;8.352;2023-06-24T01:20:22;7.22;;;4.78;;
28760;SDS011;15917;50.014;8.352;2023-06-24T01:28:41;9.27;;;4.68;;
28760;SDS011;15917;50.014;8.352;2023-06-24T01:31:44;11.52;;;4.88;;
28760;SDS011;15917;50.014;8.352;2023-06-24T01:36:54;7.15;;;4.70;;
28760;SDS011;15917;50.014;8.352;2023-06-24T01:39:46;6.68;;;4.90;;
28760;SDS011;15917;50.014;8.352;2023-06-24T01:42:15;9.43;;;4.85;;
28760;SDS011;15917;50.014;8.352;2023-06-24T01:44:44;12.00;;;5.38;;
28760;SDS011;15917;50.014;8.352;2023-06-24T01:47:12;8.15;;;5.85;;
28760;SDS011;15917;50.014;8.352;2023-06-24T01:49:43;11.82;;;7.18;;
28760;SDS011;15917;50.014;8.352;2023-06-24T01:52:11;9.57;;;5.93;;
28760;SDS011;15917;50.014;8.352;2023-06-24T01:54:38;11.35;;;5.70;;
28760;SDS011;15917;50.014;8.352;2023-06-24T01:57:06;7.93;;;4.97;;
28760;SDS011;15917;50.014;8.352;2023-06-24T01:59:36;8.23;;;4.93;;
28760;SDS011;15917;50.014;8.352;2023-06-24T02:02:05;7.80;;;4.97;;
28760;SDS011;15917;50.014;8.352;2023-06-24T02:04:32;8.00;;;5.32;;
28760;SDS011;15917;50.014;8.352;2023-06-24T02:07:01;6.40;;;4.65;;
28760;SDS011;15917;50.014;8.352;2023-06-24T02:09:29;7.22;;;4.72;;
28760;SDS011;15917;50.014;8.352;2023-06-24T02:11:57;7.43;;;4.63;;
28760;SDS011;15917;50.014;8.352;2023-06-24T02:16:52;8.60;;;5.28;;
28760;SDS011;15917;50.014;8.352;2023-06-24T02:19:26;9.02;;;5.00;;
28760;SDS011;15917;50.014;8.352;2023-06-24T02:21:56;9.20;;;4.88;;
28760;SDS011;15917;50.014;8.352;2023-06-24T02:24:24;10.27;;;5.70;;
28760;SDS011;15917;50.014;8.352;2023-06-24T02:26:53;8.23;;;5.13;;
28760;SDS011;15917;50.014;8.352;2023-06-24T02:29:19;14.05;;;5.55;;
28760;SDS011;15917;50.014;8.352;2023-06-24T02:31:48;8.00;;;5.35;;
28760;SDS011;15917;50.014;8.352;2023-06-24T02:34:15;9.70;;;5.38;;
28760;SDS011;15917;50.014;8.352;2023-06-24T02:36:41;10.17;;;5.87;;
28760;SDS011;15917;50.014;8.352;2023-06-24T02:39:06;7.72;;;5.22;;
28760;SDS011;15917;50.014;8.352;2023-06-24T02:41:32;8.35;;;5.35;;
28760;SDS011;15917;50.014;8.352;2023-06-24T02:43:58;11.68;;;5.95;;
28760;SDS011;15917;50.014;8.352;2023-06-24T02:46:24;7.72;;;5.88;;
28760;SDS011;15917;50.014;8.352;2023-06-24T02:48:50;13.57;;;6.40;;
28760;SDS011;15917;50.014;8.352;2023-06-24T02:51:17;9.48;;;6.45;;
28760;SDS011;15917;50.014;8.352;2023-06-24T02:53:45;8.75;;;5.95;;
28760;SDS011;15917;50.014;8.352;2023-06-24T02:56:12;13.68;;;6.22;;
28760;SDS011;15917;50.014;8.352;2023-06-24T02:58:41;8.50;;;5.72;;
28760;SDS011;15917;50.014;8.352;2023-06-24T03:01:16;7.95;;;5.47;;
28760;SDS011;15917;50.014;8.352;2023-06-24T03:03:46;9.20;;;5.35;;
28760;SDS011;15917;50.014;8.352;2023-06-24T03:06:16;7.80;;;5.38;;
28760;SDS011;15917;50.014;8.352;2023-06-24T03:08:43;9.95;;;5.10;;
28760;SDS011;15917;50.014;8.352;2023-06-24T03:11:12;6.88;;;4.65;;
28760;SDS011;15917;50.014;8.352;2023-06-24T03:13:39;9.38;;;5.45;;
28760;SDS011;15917;50.014;8.352;2023-06-24T03:16:18;7.95;;;5.45;;
28760;SDS011;15917;50.014;8.352;2023-06-24T03:18:59;6.07;;;4.53;;
28760;SDS011;15917;50.014;8.352;2023-06-24T03:21:25;9.05;;;4.93;;
28760;SDS011;15917;50.014;8.352;2023-06-24T03:23:54;10.73;;;5.15;;
28760;SDS011;15917;50.014;8.352;2023-06-24T03:26:21;8.25;;;5.03;;
28760;SDS011;15917;50.014;8.352;2023-06-24T03:28:47;7.97;;;5.38;;
28760;SDS011;15917;50.014;8.352;2023-06-24T03:31:15;9.07;;;5.25;;
28760;SDS011;15917;50.014;8.352;2023-06-24T03:33:41;9.05;;;6.15;;
28760;SDS011;15917;50.014;8.352;2023-06-24T03:36:11;8.63;;;5.68;;
28760;SDS011;15917;50.014;8.352;2023-06-24T03:38:38;9.57;;;5.70;;
28760;SDS011;15917;50.014;8.352;2023-06-24T03:41:05;9.40;;;5.00;;
28760;SDS011;15917;50.014;8.352;2023-06-24T03:43:32;10.38;;;5.63;;
28760;SDS011;15917;50.014;8.352;2023-06-24T03:45:58;12.98;;;5.45;;
28760;SDS011;15917;50.014;8.352;2023-06-24T03:48:26;7.63;;;5.07;;
28760;SDS011;15917;50.014;8.352;2023-06-24T03:50:52;9.15;;;5.55;;
28760;SDS011;15917;50.014;8.352;2023-06-24T03:53:20;10.32;;;5.13;;
28760;SDS011;15917;50.014;8.352;2023-06-24T03:55:45;6.80;;;5.10;;
28760;SDS011;15917;50.014;8.352;2023-06-24T03:58:12;5.43;;;4.32;;
28760;SDS011;15917;50.014;8.352;2023-06-24T04:00:39;9.90;;;5.60;;
28760;SDS011;15917;50.014;8.352;2023-06-24T04:03:06;9.73;;;4.82;;
28760;SDS011;15917;50.014;8.352;2023-06-24T04:05:33;7.05;;;4.55;;
28760;SDS011;15917;50.014;8.352;2023-06-24T04:07:59;9.35;;;5.50;;
28760;SDS011;15917;50.014;8.352;2023-06-24T04:10:24;10.52;;;5.05;;
28760;SDS011;15917;50.014;8.352;2023-06-24T04:12:50;9.70;;;4.65;;
28760;SDS011;15917;50.014;8.352;2023-06-24T04:15:16;6.30;;;4.25;;
28760;SDS011;15917;50.014;8.352;2023-06-24T04:17:42;6.45;;;4.55;;
28760;SDS011;15917;50.014;8.352;2023-06-24T04:20:08;15.13;;;5.90;;
28760;SDS011;15917;50.014;8.352;2023-06-24T04:22:37;9.75;;;5.40;;
28760;SDS011;15917;50.014;8.352;2023-06-24T04:25:06;12.45;;;5.13;;
28760;SDS011;15917;50.014;8.352;2023-06-24T04:27:33;11.27;;;4.70;;
28760;SDS011;15917;50.014;8.352;2023-06-24T04:30:00;11.20;;;4.85;;
28760;SDS011;15917;50.014;8.352;2023-06-24T04:32:26;8.37;;;5.20;;
28760;SDS011;15917;50.014;8.352;2023-06-24T04:34:52;10.20;;;5.20;;
28760;SDS011;15917;50.014;8.352;2023-06-24T04:37:19;15.15;;;5.07;;
28760;SDS011;15917;50.014;8.352;2023-06-24T04:39:46;7.18;;;5.13;;
28760;SDS011;15917;50.014;8.352;2023-06-24T04:42:14;8.52;;;5.30;;
28760;SDS011;15917;50.014;8.352;2023-06-24T04:44:40;7.18;;;5.07;;
28760;SDS011;15917;50.014;8.352;2023-06-24T04:47:05;8.52;;;5.35;;
28760;SDS011;15917;50.014;8.352;2023-06-24T04:49:31;10.60;;;5.60;;
28760;SDS011;15917;50.014;8.352;2023-06-24T04:51:59;7.95;;;5.20;;
28760;SDS011;15917;50.014;8.352;2023-06-24T04:54:25;11.10;;;5.07;;
28760;SDS011;15917;50.014;8.352;2023-06-24T04:56:52;8.95;;;5.20;;
28760;SDS011;15917;50.014;8.352;2023-06-24T04:59:20;9.18;;;5.82;;
28760;SDS011;15917;50.014;8.352;2023-06-24T05:01:48;9.65;;;5.55;;
28760;SDS011;15917;50.014;8.352;2023-06-24T05:04:14;10.00;;;5.07;;
28760;SDS011;15917;50.014;8.352;2023-06-24T05:06:39;9.50;;;5.18;;
28760;SDS011;15917;50.014;8.352;2023-06-24T05:09:05;9.68;;;5.25;;
28760;SDS011;15917;50.014;8.352;2023-06-24T05:11:30;12.25;;;5.45;;
28760;SDS011;15917;50.014;8.352;2023-06-24T05:13:56;12.32;;;6.30;;
28760;SDS011;15917;50.014;8.352;2023-06-24T05:16:23;16.15;;;7.13;;
28760;SDS011;15917;50.014;8.352;2023-06-24T05:18:49;10.50;;;6.40;;
28760;SDS011;15917;50.014;8.352;2023-06-24T05:21:15;14.40;;;5.80;;
28760;SDS011;15917;50.014;8.352;2023-06-24T05:23:41;12.38;;;5.03;;
28760;SDS011;15917;50.014;8.352;2023-06-24T05:26:06;8.40;;;5.68;;
28760;SDS011;15917;50.014;8.352;2023-06-24T05:28:32;8.30;;;5.20;;
28760;SDS011;15917;50.014;8.352;2023-06-24T05:30:58;7.32;;;4.88;;
28760;SDS011;15917;50.014;8.352;2023-06-24T05:33:23;9.65;;;5.93;;
28760;SDS011;15917;50.014;8.352;2023-06-24T05:35:49;8.40;;;5.55;;
28760;SDS011;15917;50.014;8.352;2023-06-24T05:38:15;9.52;;;6.35;;
28760;SDS011;15917;50.014;8.352;2023-06-24T05:40:41;15.75;;;6.65;;
28760;SDS011;15917;50.014;8.352;2023-06-24T05:43:07;15.02;;;7.22;;
28760;SDS011;15917;50.014;8.352;2023-06-24T05:45:32;11.65;;;7.53;;
28760;SDS011;15917;50.014;8.352;2023-06-24T05:47:58;14.40;;;7.13;;
28760;SDS011;15917;50.014;8.352;2023-06-24T05:50:24;10.48;;;7.03;;
28760;SDS011;15917;50.014;8.352;2023-06-24T05:52:49;14.43;;;7.32;;
28760;SDS011;15917;50.014;8.352;2023-06-24T05:55:15;19.65;;;7.82;;
28760;SDS011;15917;50.014;8.352;2023-06-24T05:57:41;12.32;;;7.65;;
28760;SDS011;15917;50.014;8.352;2023-06-24T06:00:06;10.32;;;7.00;;
28760;SDS011;15917;50.014;8.352;2023-06-24T06:02:41;10.63;;;7.20;;
28760;SDS011;15917;50.014;8.352;2023-06-24T06:05:06;11.98;;;7.30;;
28760;SDS011;15917;50.014;8.352;2023-06-24T06:07:32;13.32;;;7.47;;
28760;SDS011;15917;50.014;8.352;2023-06-24T06:09:58;12.65;;;7.65;;
28760;SDS011;15917;50.014;8.352;2023-06-24T06:12:25;11.95;;;6.70;;
28760;SDS011;15917;50.014;8.352;2023-06-24T06:14:50;16.88;;;7.90;;
28760;SDS011;15917;50.014;8.352;2023-06-24T06:17:16;17.20;;;8.57;;
28760;SDS011;15917;50.014;8.352;2023-06-24T06:19:42;11.82;;;7.05;;
28760;SDS011;15917;50.014;8.352;2023-06-24T06:22:11;22.45;;;7.45;;
28760;SDS011;15917;50.014;8.352;2023-06-24T06:24:38;15.70;;;7.63;;
28760;SDS011;15917;50.014;8.352;2023-06-24T06:27:04;12.70;;;6.82;;
28760;SDS011;15917;50.014;8.352;2023-06-24T06:29:34;15.02;;;7.38;;
28760;SDS011;15917;50.014;8.352;2023-06-24T06:32:00;9.85;;;6.45;;
28760;SDS011;15917;50.014;8.352;2023-06-24T06:34:25;11.70;;;6.68;;
28760;SDS011;15917;50.014;8.352;2023-06-24T06:36:51;10.40;;;6.82;;
28760;SDS011;15917;50.014;8.352;2023-06-24T06:39:16;10.15;;;6.38;;
28760;SDS011;15917;50.014;8.352;2023-06-24T06:41:42;10.65;;;7.10;;
28760;SDS011;15917;50.014;8.352;2023-06-24T06:44:14;11.73;;;7.47;;
28760;SDS011;15917;50.014;8.352;2023-06-24T06:46:40;18.30;;;7.28;;
28760;SDS011;15917;50.014;8.352;2023-06-24T06:49:05;12.63;;;7.60;;
28760;SDS011;15917;50.014;8.352;2023-06-24T06:51:31;11.70;;;7.38;;
28760;SDS011;15917;50.014;8.352;2023-06-24T06:53:57;13.95;;;6.78;;
28760;SDS011;15917;50.014;8.352;2023-06-24T06:56:23;12.60;;;7.47;;
28760;SDS011;15917;50.014;8.352;2023-06-24T06:58:52;12.65;;;7.38;;
28760;SDS011;15917;50.014;8.352;2023-06-24T07:01:18;11.43;;;7.45;;
28760;SDS011;15917;50.014;8.352;2023-06-24T07:03:44;14.20;;;7.88;;
28760;SDS011;15917;50.014;8.352;2023-06-24T07:06:10;13.65;;;7.20;;
28760;SDS011;15917;50.014;8.352;2023-06-24T07:08:36;12.23;;;7.18;;
28760;SDS011;15917;50.014;8.352;2023-06-24T07:11:02;12.50;;;7.10;;
28760;SDS011;15917;50.014;8.352;2023-06-24T07:13:27;13.13;;;8.43;;
28760;SDS011;15917;50.014;8.352;2023-06-24T07:15:53;12.93;;;7.60;;
28760;SDS011;15917;50.014;8.352;2023-06-24T07:18:19;17.30;;;9.32;;
28760;SDS011;15917;50.014;8.352;2023-06-24T07:20:44;14.63;;;7.95;;
28760;SDS011;15917;50.014;8.352;2023-06-24T07:23:10;10.80;;;7.68;;
28760;SDS011;15917;50.014;8.352;2023-06-24T07:25:36;14.93;;;8.73;;
28760;SDS011;15917;50.014;8.352;2023-06-24T07:28:02;11.60;;;8.07;;
28760;SDS011;15917;50.014;8.352;2023-06-24T07:30:28;12.43;;;7.97;;
28760;SDS011;15917;50.014;8.352;2023-06-24T07:32:53;11.93;;;7.20;;
28760;SDS011;15917;50.014;8.352;2023-06-24T07:35:19;16.48;;;8.70;;
28760;SDS011;15917;50.014;8.352;2023-06-24T07:37:45;11.68;;;7.35;;
28760;SDS011;15917;50.014;8.352;2023-06-24T07:40:11;10.98;;;6.53;;
28760;SDS011;15917;50.014;8.352;2023-06-24T07:42:37;13.05;;;7.30;;
28760;SDS011;15917;50.014;8.352;2023-06-24T07:45:02;19.10;;;7.30;;
28760;SDS011;15917;50.014;8.352;2023-06-24T07:47:28;15.77;;;7.25;;
28760;SDS011;15917;50.014;8.352;2023-06-24T07:49:54;15.02;;;8.10;;
28760;SDS011;15917;50.014;8.352;2023-06-24T07:52:20;12.18;;;6.93;;
28760;SDS011;15917;50.014;8.352;2023-06-24T07:54:46;12.32;;;5.90;;
28760;SDS011;15917;50.014;8.352;2023-06-24T07:57:11;12.65;;;7.07;;
28760;SDS011;15917;50.014;8.352;2023-06-24T07:59:37;15.02;;;7.68;;
28760;SDS011;15917;50.014;8.352;2023-06-24T08:02:03;9.90;;;7.05;;
28760;SDS011;15917;50.014;8.352;2023-06-24T08:04:28;12.27;;;6.55;;
28760;SDS011;15917;50.014;8.352;2023-06-24T08:06:54;11.10;;;6.05;;
28760;SDS011;15917;50.014;8.352;2023-06-24T08:09:20;10.82;;;6.88;;
28760;SDS011;15917;50.014;8.352;2023-06-24T08:11:45;14.90;;;7.38;;
28760;SDS011;15917;50.014;8.352;2023-06-24T08:14:11;9.30;;;6.45;;
28760;SDS011;15917;50.014;8.352;2023-06-24T08:16:37;11.70;;;6.47;;
28760;SDS011;15917;50.014;8.352;2023-06-24T08:19:02;10.07;;;6.85;;
28760;SDS011;15917;50.014;8.352;2023-06-24T08:21:28;10.68;;;6.60;;
28760;SDS011;15917;50.014;8.352;2023-06-24T08:23:54;10.93;;;6.18;;
28760;SDS011;15917;50.014;8.352;2023-06-24T08:26:20;14.05;;;6.88;;
28760;SDS011;15917;50.014;8.352;2023-06-24T08:31:51;12.02;;;6.93;;
28760;SDS011;15917;50.014;8.352;2023-06-24T08:35:13;11.73;;;5.30;;
28760;SDS011;15917;50.014;8.352;2023-06-24T08:37:39;9.55;;;6.13;;
28760;SDS011;15917;50.014;8.352;2023-06-24T08:40:05;20.10;;;6.55;;
28760;SDS011;15917;50.014;8.352;2023-06-24T08:42:32;9.27;;;6.10;;
28760;SDS011;15917;50.014;8.352;2023-06-24T08:44:58;22.55;;;6.82;;
28760;SDS011;15917;50.014;8.352;2023-06-24T08:47:24;14.63;;;5.93;;
28760;SDS011;15917;50.014;8.352;2023-06-24T08:50:46;9.20;;;6.63;;
28760;SDS011;15917;50.014;8.352;2023-06-24T08:53:16;12.82;;;6.70;;
28760;SDS011;15917;50.014;8.352;2023-06-24T08:55:44;10.50;;;6.90;;
28760;SDS011;15917;50.014;8.352;2023-06-24T08:58:11;10.55;;;6.28;;
28760;SDS011;15917;50.014;8.352;2023-06-24T09:00:38;15.88;;;5.75;;
28760;SDS011;15917;50.014;8.352;2023-06-24T09:03:04;8.48;;;4.90;;
28760;SDS011;15917;50.014;8.352;2023-06-24T09:05:30;11.55;;;6.05;;
28760;SDS011;15917;50.014;8.352;2023-06-24T09:07:56;12.38;;;5.80;;
28760;SDS011;15917;50.014;8.352;2023-06-24T09:10:35;9.68;;;5.20;;
28760;SDS011;15917;50.014;8.352;2023-06-24T09:13:02;6.43;;;4.45;;
28760;SDS011;15917;50.014;8.352;2023-06-24T09:15:38;7.07;;;4.93;;
28760;SDS011;15917;50.014;8.352;2023-06-24T09:18:04;9.73;;;4.25;;
28760;SDS011;15917;50.014;8.352;2023-06-24T09:20:31;6.95;;;3.85;;
28760;SDS011;15917;50.014;8.352;2023-06-24T09:22:58;9.43;;;5.13;;
28760;SDS011;15917;50.014;8.352;2023-06-24T09:25:24;6.72;;;4.68;;
28760;SDS011;15917;50.014;8.352;2023-06-24T09:27:50;11.93;;;4.10;;
28760;SDS011;15917;50.014;8.352;2023-06-24T09:32:47;8.38;;;4.45;;
28760;SDS011;15917;50.014;8.352;2023-06-24T09:35:14;10.93;;;5.13;;
28760;SDS011;15917;50.014;8.352;2023-06-24T09:37:48;10.52;;;4.95;;
28760;SDS011;15917;50.014;8.352;2023-06-24T09:40:17;8.35;;;4.00;;
28760;SDS011;15917;50.014;8.352;2023-06-24T09:42:54;11.00;;;6.25;;
28760;SDS011;15917;50.014;8.352;2023-06-24T09:45:27;11.05;;;7.00;;
28760;SDS011;15917;50.014;8.352;2023-06-24T09:47:54;12.95;;;5.63;;
28760;SDS011;15917;50.014;8.352;2023-06-24T09:50:21;10.68;;;6.78;;
28760;SDS011;15917;50.014;8.352;2023-06-24T09:52:47;12.68;;;7.30;;
28760;SDS011;15917;50.014;8.352;2023-06-24T09:55:14;12.13;;;5.45;;
28760;SDS011;15917;50.014;8.352;2023-06-24T09:57:42;11.43;;;5.63;;
28760;SDS011;15917;50.014;8.352;2023-06-24T10:00:11;8.35;;;5.30;;
28760;SDS011;15917;50.014;8.352;2023-06-24T10:02:41;12.30;;;5.40;;
28760;SDS011;15917;50.014;8.352;2023-06-24T10:05:08;12.63;;;7.55;;
28760;SDS011;15917;50.014;8.352;2023-06-24T10:07:34;9.85;;;5.25;;
28760;SDS011;15917;50.014;8.352;2023-06-24T10:10:04;7.00;;;4.93;;
28760;SDS011;15917;50.014;8.352;2023-06-24T10:12:31;10.45;;;4.88;;
28760;SDS011;15917;50.014;8.352;2023-06-24T10:14:57;8.27;;;5.68;;
28760;SDS011;15917;50.014;8.352;2023-06-24T10:17:24;8.68;;;4.75;;
28760;SDS011;15917;50.014;8.352;2023-06-24T10:19:51;8.30;;;4.35;;
28760;SDS011;15917;50.014;8.352;2023-06-24T10:22:24;11.55;;;4.75;;
28760;SDS011;15917;50.014;8.352;2023-06-24T10:24:51;7.43;;;3.90;;
28760;SDS011;15917;50.014;8.352;2023-06-24T10:27:18;5.93;;;3.80;;
28760;SDS011;15917;50.014;8.352;2023-06-24T10:29:49;9.50;;;5.30;;
28760;SDS011;15917;50.014;8.352;2023-06-24T10:32:21;7.40;;;4.45;;
28760;SDS011;15917;50.014;8.352;2023-06-24T10:34:48;7.90;;;4.22;;
28760;SDS011;15917;50.014;8.352;2023-06-24T10:37:20;14.38;;;5.38;;
28760;SDS011;15917;50.014;8.352;2023-06-24T10:39:50;10.70;;;4.80;;
28760;SDS011;15917;50.014;8.352;2023-06-24T10:45:23;6.72;;;4.30;;
28760;SDS011;15917;50.014;8.352;2023-06-24T10:47:49;7.15;;;4.93;;
28760;SDS011;15917;50.014;8.352;2023-06-24T10:50:21;8.15;;;3.85;;
28760;SDS011;15917;50.014;8.352;2023-06-24T10:55:18;7.10;;;3.70;;
28760;SDS011;15917;50.014;8.352;2023-06-24T10:57:44;9.88;;;3.97;;
28760;SDS011;15917;50.014;8.352;2023-06-24T11:00:11;4.70;;;3.23;;
28760;SDS011;15917;50.014;8.352;2023-06-24T11:02:38;5.88;;;4.18;;
28760;SDS011;15917;50.014;8.352;2023-06-24T11:05:04;6.13;;;4.10;;
28760;SDS011;15917;50.014;8.352;2023-06-24T11:07:31;5.10;;;3.77;;
28760;SDS011;15917;50.014;8.352;2023-06-24T11:12:39;5.65;;;3.67;;
28760;SDS011;15917;50.014;8.352;2023-06-24T11:15:09;4.38;;;3.60;;
28760;SDS011;15917;50.014;8.352;2023-06-24T11:17:36;6.93;;;3.55;;
28760;SDS011;15917;50.014;8.352;2023-06-24T11:20:06;8.00;;;4.68;;
28760;SDS011;15917;50.014;8.352;2023-06-24T11:22:33;4.25;;;3.15;;
28760;SDS011;15917;50.014;8.352;2023-06-24T11:24:59;6.28;;;3.70;;
28760;SDS011;15917;50.014;8.352;2023-06-24T11:27:28;5.28;;;3.92;;
28760;SDS011;15917;50.014;8.352;2023-06-24T11:29:55;6.18;;;3.25;;
28760;SDS011;15917;50.014;8.352;2023-06-24T11:32:40;6.00;;;3.63;;
28760;SDS011;15917;50.014;8.352;2023-06-24T11:35:08;10.68;;;4.28;;
28760;SDS011;15917;50.014;8.352;2023-06-24T11:40:04;6.78;;;3.60;;
28760;SDS011;15917;50.014;8.352;2023-06-24T11:42:32;10.48;;;3.58;;
28760;SDS011;15917;50.014;8.352;2023-06-24T11:45:04;10.82;;;3.70;;
28760;SDS011;15917;50.014;8.352;2023-06-24T11:47:32;10.88;;;3.45;;
28760;SDS011;15917;50.014;8.352;2023-06-24T11:50:02;8.52;;;3.50;;
28760;SDS011;15917;50.014;8.352;2023-06-24T11:55:02;6.03;;;3.67;;
28760;SDS011;15917;50.014;8.352;2023-06-24T11:57:51;6.38;;;3.40;;
28760;SDS011;15917;50.014;8.352;2023-06-24T12:00:19;5.15;;;3.50;;
28760;SDS011;15917;50.014;8.352;2023-06-24T12:02:48;5.47;;;3.28;;
28760;SDS011;15917;50.014;8.352;2023-06-24T12:05:19;4.35;;;3.38;;
28760;SDS011;15917;50.014;8.352;2023-06-24T12:10:26;4.35;;;3.30;;
28760;SDS011;15917;50.014;8.352;2023-06-24T12:12:52;4.07;;;3.42;;
28760;SDS011;15917;50.014;8.352;2023-06-24T12:15:18;3.78;;;3.10;;
28760;SDS011;15917;50.014;8.352;2023-06-24T12:17:44;5.00;;;3.30;;
28760;SDS011;15917;50.014;8.352;2023-06-24T12:20:09;7.10;;;3.45;;
28760;SDS011;15917;50.014;8.352;2023-06-24T12:22:36;5.70;;;3.20;;
28760;SDS011;15917;50.014;8.352;2023-06-24T12:25:02;5.97;;;3.10;;
28760;SDS011;15917;50.014;8.352;2023-06-24T12:27:28;4.57;;;3.05;;
28760;SDS011;15917;50.014;8.352;2023-06-24T12:29:54;7.00;;;3.13;;
28760;SDS011;15917;50.014;8.352;2023-06-24T12:32:20;5.43;;;3.97;;
28760;SDS011;15917;50.014;8.352;2023-06-24T12:34:45;4.47;;;3.42;;
28760;SDS011;15917;50.014;8.352;2023-06-24T12:37:11;4.63;;;3.30;;
28760;SDS011;15917;50.014;8.352;2023-06-24T12:39:37;6.03;;;3.05;;
28760;SDS011;15917;50.014;8.352;2023-06-24T12:42:02;10.18;;;4.22;;
28760;SDS011;15917;50.014;8.352;2023-06-24T12:44:28;4.72;;;2.95;;
28760;SDS011;15917;50.014;8.352;2023-06-24T12:46:54;6.18;;;3.72;;
28760;SDS011;15917;50.014;8.352;2023-06-24T12:49:19;5.88;;;3.60;;
28760;SDS011;15917;50.014;8.352;2023-06-24T12:51:45;8.88;;;3.67;;
28760;SDS011;15917;50.014;8.352;2023-06-24T12:54:11;5.97;;;4.13;;
28760;SDS011;15917;50.014;8.352;2023-06-24T12:56:36;7.07;;;3.50;;
28760;SDS011;15917;50.014;8.352;2023-06-24T12:59:02;7.35;;;3.75;;
28760;SDS011;15917;50.014;8.352;2023-06-24T13:01:28;7.45;;;3.53;;
28760;SDS011;15917;50.014;8.352;2023-06-24T13:03:53;10.40;;;3.60;;
28760;SDS011;15917;50.014;8.352;2023-06-24T13:06:19;5.20;;;3.33;;
28760;SDS011;15917;50.014;8.352;2023-06-24T13:08:44;6.63;;;3.72;;
28760;SDS011;15917;50.014;8.352;2023-06-24T13:11:10;5.65;;;3.42;;
28760;SDS011;15917;50.014;8.352;2023-06-24T13:13:36;6.32;;;2.95;;
28760;SDS011;15917;50.014;8.352;2023-06-24T13:16:01;5.75;;;3.38;;
28760;SDS011;15917;50.014;8.352;2023-06-24T13:18:27;6.60;;;3.20;;
28760;SDS011;15917;50.014;8.352;2023-06-24T13:20:53;6.00;;;3.58;;
28760;SDS011;15917;50.014;8.352;2023-06-24T13:23:18;5.32;;;3.38;;
28760;SDS011;15917;50.014;8.352;2023-06-24T13:25:44;4.28;;;3.17;;
28760;SDS011;15917;50.014;8.352;2023-06-24T13:28:10;6.97;;;3.75;;
28760;SDS011;15917;50.014;8.352;2023-06-24T13:30:36;5.85;;;3.20;;
28760;SDS011;15917;50.014;8.352;2023-06-24T13:33:01;7.32;;;3.42;;
28760;SDS011;15917;50.014;8.352;2023-06-24T13:35:27;6.30;;;2.88;;
28760;SDS011;15917;50.014;8.352;2023-06-24T13:37:53;4.43;;;3.35;;
28760;SDS011;15917;50.014;8.352;2023-06-24T13:40:19;5.65;;;3.35;;
28760;SDS011;15917;50.014;8.352;2023-06-24T13:42:44;6.85;;;2.97;;
28760;SDS011;15917;50.014;8.352;2023-06-24T13:45:10;9.50;;;3.80;;
28760;SDS011;15917;50.014;8.352;2023-06-24T13:47:36;5.93;;;3.40;;
28760;SDS011;15917;50.014;8.352;2023-06-24T13:50:02;6.35;;;3.58;;
28760;SDS011;15917;50.014;8.352;2023-06-24T13:52:29;13.52;;;3.50;;
28760;SDS011;15917;50.014;8.352;2023-06-24T13:54:54;4.80;;;2.88;;
28760;SDS011;15917;50.014;8.352;2023-06-24T13:57:20;7.00;;;3.80;;
28760;SDS011;15917;50.014;8.352;2023-06-24T13:59:46;8.60;;;3.35;;
28760;SDS011;15917;50.014;8.352;2023-06-24T14:02:12;8.93;;;3.25;;
28760;SDS011;15917;50.014;8.352;2023-06-24T14:04:38;8.73;;;3.83;;
28760;SDS011;15917;50.014;8.352;2023-06-24T14:07:07;4.78;;;3.38;;
28760;SDS011;15917;50.014;8.352;2023-06-24T14:09:33;5.38;;;3.35;;
28760;SDS011;15917;50.014;8.352;2023-06-24T14:11:59;4.73;;;3.23;;
28760;SDS011;15917;50.014;8.352;2023-06-24T14:14:25;7.07;;;4.30;;
28760;SDS011;15917;50.014;8.352;2023-06-24T14:16:50;9.70;;;3.72;;
28760;SDS011;15917;50.014;8.352;2023-06-24T14:19:16;6.85;;;3.30;;
28760;SDS011;15917;50.014;8.352;2023-06-24T14:21:42;4.13;;;3.15;;
28760;SDS011;15917;50.014;8.352;2023-06-24T14:24:07;6.32;;;3.33;;
28760;SDS011;15917;50.014;8.352;2023-06-24T14:29:00;7.00;;;3.22;;
28760;SDS011;15917;50.014;8.352;2023-06-24T14:31:26;7.03;;;3.88;;
28760;SDS011;15917;50.014;8.352;2023-06-24T14:33:52;5.63;;;4.00;;
28760;SDS011;15917;50.014;8.352;2023-06-24T14:36:18;6.00;;;3.63;;
28760;SDS011;15917;50.014;8.352;2023-06-24T14:38:43;7.32;;;4.03;;
28760;SDS011;15917;50.014;8.352;2023-06-24T14:41:10;7.63;;;3.50;;
28760;SDS011;15917;50.014;8.352;2023-06-24T14:43:35;14.55;;;3.22;;
28760;SDS011;15917;50.014;8.352;2023-06-24T14:46:01;5.30;;;2.92;;
28760;SDS011;15917;50.014;8.352;2023-06-24T14:48:27;12.27;;;3.53;;
28760;SDS011;15917;50.014;8.352;2023-06-24T14:50:53;5.63;;;3.25;;
28760;SDS011;15917;50.014;8.352;2023-06-24T14:53:18;17.38;;;3.47;;
28760;SDS011;15917;50.014;8.352;2023-06-24T14:55:45;8.30;;;3.78;;
28760;SDS011;15917;50.014;8.352;2023-06-24T14:58:11;7.82;;;3.30;;
28760;SDS011;15917;50.014;8.352;2023-06-24T15:00:37;8.40;;;4.07;;
28760;SDS011;15917;50.014;8.352;2023-06-24T15:03:02;13.70;;;4.28;;
28760;SDS011;15917;50.014;8.352;2023-06-24T15:05:28;5.28;;;4.07;;
28760;SDS011;15917;50.014;8.352;2023-06-24T15:07:53;15.68;;;4.30;;
28760;SDS011;15917;50.014;8.352;2023-06-24T15:10:19;6.07;;;3.67;;
28760;SDS011;15917;50.014;8.352;2023-06-24T15:12:45;7.63;;;4.35;;
28760;SDS011;15917;50.014;8.352;2023-06-24T15:15:10;7.70;;;3.65;;
28760;SDS011;15917;50.014;8.352;2023-06-24T15:17:36;6.05;;;3.97;;
28760;SDS011;15917;50.014;8.352;2023-06-24T15:20:06;8.15;;;3.72;;
28760;SDS011;15917;50.014;8.352;2023-06-24T15:22:35;5.90;;;3.65;;